YPLG weather

Pilliga Airport
New South Wales, Australia

Public forecast

Using degrees Celsius for public forecast. Weather courtesy of forecast.io.

METAR (pilot weather report)

Closest report is Coonamble Airport, 45.3 nm (84.0 km) SW. Retrieved 2019/06/18 02:00 UTC (20 minutes ago):

YCNM 180200Z AUTO 23009KT //// // ////// 17/07 Q1020

TAF (pilot weather forecast)

Forecast is more than 12 hours old.

Closest forecast is Tamworth Airport, 110.1 nm (204.0 km) ESE. Retrieved 2019/06/17 00:36 UTC (1 day ago):

TAF TAF YSTW 172242Z 1800/1818 27005KT 9999 SCT015 BKN035 FM180200 24005KT 9999 BKN040 FM181500 VRB03KT 9999 SCT040